Airfield :
LOGIN :

Register | Disclaimer

   EN    FR    IT 

 










Legend :    VFR   Marginal VFR   IFR   Intensive IFR   Very Intensive IFR
Visi :
Ceiling :
>= 8 km
>= 3000ft
5 to 8 km
1000 to 3000 ft
1500m to 5 km
500 to 1000 ft
800 to 1500m
200 to 500 ft
< 800m
< 200 ft
Symbols :   Thunderstorms  Fog  Heavy snow  Heavy precipitations  Wind > 20 kt
SIGMETs :     Misc.  Thunderstorms  Icing  Turbulence  Mountain Waves  Volcanic Ashes







- Airport Elevation : 50 ft
- IATA code : KOI
- Download approach charts


EGPA - Kirkwall

CURRENT METAR :
  • 121720Z 16021KT 9999 SCT022 08/05 Q1017

EXPIRED METARs :
  • 121650Z 16022G32KT 9999 FEW020 08/05 Q1018
  • 121620Z 16021KT 9999 FEW016 SCT022 08/05 Q1018
  • 121550Z 16023KT 9999 FEW016 SCT022 08/05 Q1017
  • 121520Z 16021KT 9999 FEW018 08/05 Q1018
  • 121450Z 16022KT 9999 FEW018 SCT032 08/05 Q1017
  • 121420Z 16021KT 9999 FEW014 SCT018 BKN030 08/05 Q1018

TAF TAF EGPA
Valid from the 12 at 15:00 until the 13 at 00:00 UTC


121403Z 1215/1224 16022KT 9999 FEW015 SCT020
TEMPO 1215/1224 17025G38KT
PROB30
TEMPO 1215/1217 BKN014
No reported NOTAMs for that airfield.



MET'MAP, your aeronautical weather chart ! - Copyright ORBIFLY December 2007 - Disclaimer

ORBIFLY MET'MAP TEAM :

Programming & Development : Alexandra Zaïnal
Concept & Development : Baudouin d'Aumeries
Co-Development & Prog : Marc-Olivier Méhu
Technical & hardware support : Manuel Goepfert

Contact : metmap@orbifly.com




SOURCES & CREDITS :

   NOAA